Time;durP1;ratioP1;P1;durP2;ratioP2;P2;SDS_P1;SDS_P2;PMS_P1;PMS_P2;Temp;Humidity;BMP_temperature;BMP_pressure;BME280_temperature;BME280_humidity;BME280_pressure;Samples;Min_cycle;Max_cycle;Signal;HPM_P1;HPM_P2
2023/11/22 00:01:20;;;;;;;33.13;24.67;;;10.30;99.90;;;;;;5069191;28;20036;-68
2023/11/22 00:03:46;;;;;;;35.45;26.58;;;;;;;;;;5069367;28;20044;-67
2023/11/22 00:06:13;;;;;;;31.38;23.52;;;;;;;;;;5052489;28;20590;-60
2023/11/22 00:08:38;;;;;;;31.40;23.92;;;10.30;99.90;;;;;;5043971;28;20040;-65
2023/11/22 00:11:05;;;;;;;31.73;25.40;;;10.50;99.90;;;;;;5049070;28;20072;-60
2023/11/22 00:13:32;;;;;;;34.10;25.42;;;10.50;99.90;;;;;;5051563;28;20037;-63
2023/11/22 00:15:58;;;;;;;36.53;25.70;;;10.60;99.90;;;;;;5058795;28;20029;-63
2023/11/22 00:18:24;;;;;;;33.20;25.15;;;10.70;99.90;;;;;;5057549;28;20072;-61
2023/11/22 00:20:50;;;;;;;29.48;23.15;;;10.90;99.90;;;;;;5054179;28;20025;-62
2023/11/22 00:23:16;;;;;;;28.63;23.10;;;11.00;99.90;;;;;;5051621;28;20037;-61
2023/11/22 00:25:42;;;;;;;30.80;23.10;;;11.00;99.90;;;;;;5049341;28;20041;-62
2023/11/22 00:28:08;;;;;;;27.52;22.42;;;11.10;99.90;;;;;;5035078;28;20106;-61
2023/11/22 00:30:34;;;;;;;29.67;23.00;;;11.20;99.90;;;;;;5097832;28;20044;-59
2023/11/22 00:32:59;;;;;;;29.30;21.70;;;11.30;99.90;;;;;;5112348;28;20088;-60
2023/11/22 00:35:25;;;;;;;27.40;22.13;;;11.30;99.90;;;;;;5112166;28;20035;-60
2023/11/22 00:37:51;;;;;;;27.58;23.00;;;11.40;99.90;;;;;;5112402;28;20110;-61
2023/11/22 00:40:16;;;;;;;28.20;21.75;;;11.40;99.90;;;;;;5112024;28;20478;-60
2023/11/22 00:42:43;;;;;;;24.70;20.70;;;;;;;;;;5111932;28;20059;-62
2023/11/22 00:45:09;;;;;;;26.15;20.75;;;;;;;;;;5059668;28;20036;-59
2023/11/22 00:47:36;;;;;;;29.23;21.92;;;;;;;;;;5111843;28;20128;-59
2023/11/22 00:50:04;;;;;;;26.13;21.60;;;;;;;;;;5112436;28;20027;-59
2023/11/22 00:52:30;;;;;;;26.80;21.50;;;;;;;;;;5112269;28;20042;-61
2023/11/22 00:54:56;;;;;;;28.80;22.45;;;;;;;;;;5112102;28;20050;-59
2023/11/22 00:57:23;;;;;;;24.90;20.23;;;;;;;;;;5111663;28;20038;-58
2023/11/22 00:59:49;;;;;;;24.95;20.40;;;11.40;99.90;;;;;;5111852;28;20036;-62
2023/11/22 01:02:16;;;;;;;27.70;21.30;;;11.40;99.90;;;;;;5111803;28;20067;-59
2023/11/22 01:04:42;;;;;;;24.92;19.98;;;;;;;;;;5111764;28;20081;-61
2023/11/22 01:07:08;;;;;;;28.35;21.63;;;;;;;;;;5111813;28;20035;-61
2023/11/22 01:09:34;;;;;;;29.17;21.50;;;;;;;;;;5106845;28;20107;-61
2023/11/22 01:12:00;;;;;;;24.00;20.23;;;;;;;;;;5091659;28;20475;-59
2023/11/22 01:14:27;;;;;;;28.10;21.23;;;;;;;;;;5091309;28;20036;-61
2023/11/22 01:16:56;;;;;;;24.75;20.02;;;;;;;;;;5091352;28;20036;-60
2023/11/22 01:19:22;;;;;;;26.17;21.00;;;;;;;;;;5055341;28;20052;-61
2023/11/22 01:21:48;;;;;;;27.20;19.92;;;11.30;99.90;;;;;;5091324;28;20116;-62
2023/11/22 01:24:14;;;;;;;26.00;21.10;;;11.40;99.90;;;;;;5094900;28;20114;-62
2023/11/22 01:26:40;;;;;;;26.92;19.50;;;11.40;99.90;;;;;;5095246;28;20028;-62
2023/11/22 01:29:06;;;;;;;28.00;20.58;;;;;;;;;;5094723;28;20510;-60
2023/11/22 01:31:32;;;;;;;27.48;20.88;;;11.40;99.90;;;;;;5094569;28;20467;-60
2023/11/22 01:33:59;;;;;;;24.48;20.17;;;11.30;99.90;;;;;;5095124;28;20031;-59
2023/11/22 01:36:25;;;;;;;26.40;20.50;;;11.40;99.90;;;;;;5076351;28;20027;-60
2023/11/22 01:38:52;;;;;;;22.83;18.65;;;11.30;99.90;;;;;;5042439;28;20108;-61
2023/11/22 01:41:19;;;;;;;23.00;18.83;;;11.40;99.90;;;;;;5094640;28;20035;-59
2023/11/22 01:43:46;;;;;;;23.00;18.17;;;11.40;99.90;;;;;;5076080;28;20056;-61
2023/11/22 01:46:23;;;;;;;25.20;19.30;;;11.30;99.90;;;;;;5042513;28;20044;-61
2023/11/22 01:48:50;;;;;;;23.75;18.48;;;11.30;99.90;;;;;;5094321;28;20039;-62
2023/11/22 01:51:16;;;;;;;23.10;18.70;;;;;;;;;;5094490;28;20169;-62
2023/11/22 01:53:43;;;;;;;22.95;18.90;;;;;;;;;;5094180;28;20030;-60
2023/11/22 01:56:09;;;;;;;26.40;20.48;;;10.90;99.90;;;;;;5094240;28;20035;-62
2023/11/22 01:58:35;;;;;;;26.67;19.08;;;10.80;99.90;;;;;;5094007;28;20039;-59
2023/11/22 02:01:02;;;;;;;24.38;19.08;;;10.80;99.90;;;;;;5094250;28;20106;-60
2023/11/22 02:03:29;;;;;;;23.88;18.70;;;10.90;99.90;;;;;;5094032;28;20097;-61
2023/11/22 02:05:54;;;;;;;20.95;17.70;;;10.70;99.90;;;;;;5094003;28;20058;-62
2023/11/22 02:08:20;;;;;;;21.80;18.25;;;10.80;99.90;;;;;;5094413;28;20031;-62
2023/11/22 02:10:49;;;;;;;21.77;18.77;;;10.80;99.90;;;;;;5041776;28;20090;-60
2023/11/22 02:13:14;;;;;;;26.30;21.00;;;10.70;99.90;;;;;;5042724;28;20048;-62
2023/11/22 02:15:40;;;;;;;24.95;19.15;;;10.80;99.90;;;;;;5094123;28;20032;-61
2023/11/22 02:18:06;;;;;;;22.73;19.67;;;10.70;99.90;;;;;;5094143;28;20026;-60
2023/11/22 02:20:32;;;;;;;28.73;20.92;;;10.80;99.90;;;;;;5041594;28;20368;-59
2023/11/22 02:23:09;;;;;;;26.77;20.17;;;10.80;99.90;;;;;;5058073;28;20079;-60
2023/11/22 02:25:35;;;;;;;25.65;19.77;;;10.80;99.90;;;;;;5093845;28;20024;-60
2023/11/22 02:28:02;;;;;;;26.48;19.80;;;10.70;99.90;;;;;;5093797;28;20028;-61
2023/11/22 02:30:28;;;;;;;26.10;20.33;;;10.90;99.90;;;;;;5093565;28;20042;-58
2023/11/22 02:32:54;;;;;;;23.98;19.23;;;10.80;99.90;;;;;;4992011;28;20122;-59
2023/11/22 02:35:19;;;;;;;24.50;19.10;;;10.70;99.90;;;;;;5057341;28;20032;-62
2023/11/22 02:37:47;;;;;;;23.25;18.10;;;10.70;99.90;;;;;;5093308;28;20020;-59
2023/11/22 02:40:22;;;;;;;21.55;16.67;;;10.70;99.90;;;;;;5075139;28;20047;-60
2023/11/22 02:42:49;;;;;;;24.08;18.00;;;10.80;99.90;;;;;;5093053;28;20056;-59
2023/11/22 02:45:20;;;;;;;24.08;18.83;;;10.70;99.90;;;;;;5093461;28;20028;-60
2023/11/22 02:47:46;;;;;;;21.98;17.92;;;10.80;99.90;;;;;;5093212;28;20391;-61
2023/11/22 02:50:18;;;;;;;24.50;18.92;;;10.80;99.90;;;;;;5093592;28;20024;-60
2023/11/22 02:52:44;;;;;;;25.27;18.85;;;10.70;99.90;;;;;;5093416;28;20028;-62
2023/11/22 02:55:10;;;;;;;21.83;17.15;;;10.80;99.90;;;;;;5093139;28;20419;-61
2023/11/22 02:57:36;;;;;;;24.25;19.48;;;10.70;99.90;;;;;;5040751;28;21133;-60
2023/11/22 03:00:07;;;;;;;21.83;18.45;;;10.60;99.90;;;;;;5040558;28;20127;-60
2023/11/22 03:02:33;;;;;;;23.10;18.17;;;10.50;99.90;;;;;;5092958;28;20525;-61
2023/11/22 03:04:59;;;;;;;23.42;19.13;;;10.60;99.90;;;;;;5092885;28;20067;-60
2023/11/22 03:07:28;;;;;;;24.10;17.35;;;10.60;99.90;;;;;;5040636;28;20067;-60
2023/11/22 03:09:55;;;;;;;25.95;19.65;;;10.50;99.90;;;;;;5092703;28;20032;-62
2023/11/22 03:12:21;;;;;;;23.70;18.15;;;10.50;99.90;;;;;;5093111;28;20119;-61
2023/11/22 03:14:48;;;;;;;26.05;18.55;;;;;;;;;;5007688;28;20598;-61
2023/11/22 03:17:15;;;;;;;24.15;19.58;;;;;;;;;;5093052;28;20024;-60
2023/11/22 03:19:41;;;;;;;21.88;18.33;;;10.70;99.90;;;;;;5092688;28;20042;-61
2023/11/22 03:22:06;;;;;;;22.80;18.52;;;10.70;99.90;;;;;;5056845;28;20032;-60
2023/11/22 03:24:37;;;;;;;22.13;18.90;;;;;;;;;;5092585;28;20112;-61
2023/11/22 03:27:02;;;;;;;21.98;18.38;;;10.80;99.90;;;;;;5092698;28;20103;-61
2023/11/22 03:29:29;;;;;;;24.10;19.27;;;11.00;99.90;;;;;;4996880;28;20120;-62
2023/11/22 03:31:55;;;;;;;24.15;19.40;;;10.90;99.90;;;;;;5029869;28;20528;-60
2023/11/22 03:34:21;;;;;;;25.50;21.88;;;10.90;99.90;;;;;;5029780;28;20033;-61
2023/11/22 03:36:48;;;;;;;25.25;20.10;;;10.90;99.90;;;;;;5030026;28;20068;-62
2023/11/22 03:39:15;;;;;;;23.65;18.98;;;11.00;99.90;;;;;;4996943;28;20149;-59
2023/11/22 03:41:41;;;;;;;21.75;18.63;;;11.00;99.90;;;;;;5029897;28;20021;-61
2023/11/22 03:44:11;;;;;;;23.27;18.75;;;11.30;99.90;;;;;;5029504;28;20049;-60
2023/11/22 03:46:37;;;;;;;24.50;17.40;;;11.00;99.90;;;;;;5029167;28;20608;-60
2023/11/22 03:49:04;;;;;;;23.52;17.23;;;10.90;99.90;;;;;;5029419;28;20034;-61
2023/11/22 03:51:30;;;;;;;21.42;16.85;;;10.90;99.90;;;;;;5029673;28;20055;-61
2023/11/22 03:53:56;;;;;;;25.33;19.08;;;10.80;99.90;;;;;;5028630;28;20608;-61
2023/11/22 03:56:22;;;;;;;23.85;18.38;;;10.80;99.90;;;;;;5029350;28;20021;-60
2023/11/22 03:58:48;;;;;;;25.20;19.55;;;10.80;99.90;;;;;;5029514;28;20501;-59
2023/11/22 04:01:16;;;;;;;25.70;20.27;;;10.90;99.90;;;;;;5045366;28;20564;-61
2023/11/22 04:03:41;;;;;;;29.40;21.55;;;11.00;99.90;;;;;;5092074;28;20028;-61
2023/11/22 04:06:07;;;;;;;27.20;18.15;;;11.10;99.90;;;;;;5091861;28;20035;-61
2023/11/22 04:08:33;;;;;;;23.42;18.50;;;11.00;99.90;;;;;;5092202;28;20031;-60
2023/11/22 04:10:59;;;;;;;27.85;19.90;;;11.10;99.90;;;;;;5006608;28;20483;-61
2023/11/22 04:13:25;;;;;;;25.90;18.90;;;11.20;99.90;;;;;;5022946;28;20062;-60
2023/11/22 04:15:51;;;;;;;23.55;18.17;;;11.20;99.90;;;;;;5092067;28;20111;-60
2023/11/22 04:18:17;;;;;;;30.65;22.17;;;11.10;99.90;;;;;;5091667;28;20032;-59
2023/11/22 04:20:42;;;;;;;22.65;18.52;;;11.20;99.90;;;;;;5091797;28;20430;-60
2023/11/22 04:23:13;;;;;;;26.42;20.13;;;11.20;99.90;;;;;;5091665;28;20537;-60
2023/11/22 04:25:41;;;;;;;27.80;20.92;;;11.20;99.90;;;;;;5057608;28;20040;-60
2023/11/22 04:28:09;;;;;;;21.33;17.92;;;11.20;99.90;;;;;;5091585;28;20433;-60
2023/11/22 04:30:35;;;;;;;24.67;20.98;;;11.10;99.90;;;;;;5091731;28;20040;-60
2023/11/22 04:33:01;;;;;;;24.73;19.55;;;11.10;99.90;;;;;;5108934;28;20046;-60
2023/11/22 04:35:27;;;;;;;26.05;21.25;;;11.10;99.90;;;;;;5111931;28;20053;-60
2023/11/22 04:37:55;;;;;;;50.75;46.00;;;11.00;99.90;;;;;;5111991;28;20593;-60
2023/11/22 04:40:21;;;;;;;29.40;25.38;;;10.90;99.90;;;;;;5111877;28;20082;-59
2023/11/22 04:42:48;;;;;;;32.78;29.23;;;10.80;99.90;;;;;;5108038;28;20109;-59
2023/11/22 04:45:14;;;;;;;27.25;23.98;;;10.90;99.90;;;;;;5091556;28;20391;-58
2023/11/22 04:47:39;;;;;;;27.48;24.58;;;10.90;99.90;;;;;;5039429;28;20032;-59
2023/11/22 04:50:06;;;;;;;34.85;31.35;;;10.90;99.90;;;;;;5091778;28;20425;-60
2023/11/22 04:52:32;;;;;;;37.42;33.65;;;10.90;99.90;;;;;;5022529;28;20093;-60
2023/11/22 04:54:58;;;;;;;61.92;56.17;;;10.70;99.90;;;;;;5091776;28;20020;-61
2023/11/22 04:57:24;;;;;;;34.25;30.48;;;;;;;;;;5040135;28;20043;-61
2023/11/22 04:59:50;;;;;;;35.53;31.80;;;10.90;99.90;;;;;;5095453;28;20036;-60
2023/11/22 05:02:16;;;;;;;33.80;30.17;;;10.90;99.90;;;;;;5095353;28;20590;-60
2023/11/22 05:04:42;;;;;;;26.05;21.48;;;11.00;99.90;;;;;;5095248;28;20023;-61
2023/11/22 05:07:09;;;;;;;28.80;22.23;;;11.10;99.90;;;;;;5095268;28;20032;-59
2023/11/22 05:09:34;;;;;;;32.05;26.20;;;11.10;99.90;;;;;;5095273;28;20020;-59
2023/11/22 05:12:00;;;;;;;26.55;22.25;;;11.00;99.90;;;;;;5042698;28;20036;-59
2023/11/22 05:14:26;;;;;;;23.95;19.13;;;11.10;99.90;;;;;;5095261;28;20028;-58
2023/11/22 05:16:52;;;;;;;27.05;22.98;;;11.20;99.90;;;;;;5095071;28;20165;-59
2023/11/22 05:19:19;;;;;;;25.63;20.45;;;11.30;99.90;;;;;;5094739;28;20032;-59
2023/11/22 05:21:44;;;;;;;25.15;20.77;;;11.20;99.90;;;;;;5094143;28;20028;-60
2023/11/22 05:24:10;;;;;;;59.20;54.17;;;11.10;99.90;;;;;;5094858;28;20070;-60
2023/11/22 05:26:36;;;;;;;32.63;26.58;;;11.10;99.90;;;;;;5094711;28;20028;-59
2023/11/22 05:29:04;;;;;;;37.05;29.17;;;11.20;99.90;;;;;;5058614;28;20066;-61
2023/11/22 05:31:30;;;;;;;44.60;30.85;;;;;;;;;;5042936;28;20048;-61
2023/11/22 05:33:56;;;;;;;27.65;22.73;;;;;;;;;;5094895;28;20054;-60
2023/11/22 05:36:22;;;;;;;26.25;21.33;;;;;;;;;;5093696;28;20039;-59
2023/11/22 05:38:49;;;;;;;27.33;22.13;;;;;;;;;;5058971;28;20040;-59
2023/11/22 05:41:15;;;;;;;27.40;21.15;;;;;;;;;;5094577;28;20023;-61
2023/11/22 05:43:42;;;;;;;26.17;21.08;;;;;;;;;;5094189;28;20043;-60
2023/11/22 05:46:08;;;;;;;25.70;21.65;;;11.40;99.90;;;;;;5094400;28;20082;-59
2023/11/22 05:48:35;;;;;;;28.90;22.27;;;11.30;99.90;;;;;;5111555;28;20483;-59
2023/11/22 05:51:00;;;;;;;25.95;21.00;;;11.30;99.90;;;;;;5072894;28;20403;-62
2023/11/22 05:53:26;;;;;;;28.77;22.13;;;11.30;99.90;;;;;;5094015;28;20031;-59
2023/11/22 05:55:52;;;;;;;28.58;21.55;;;11.30;99.90;;;;;;5094389;28;20066;-59
2023/11/22 05:58:18;;;;;;;27.55;23.92;;;11.40;99.90;;;;;;5093985;28;20020;-58
2023/11/22 06:00:47;;;;;;;27.67;22.35;;;11.40;99.90;;;;;;5094118;28;20054;-59
2023/11/22 06:03:13;;;;;;;27.13;21.98;;;11.40;99.90;;;;;;5094163;28;20093;-61
2023/11/22 06:05:40;;;;;;;26.52;21.60;;;;;;;;;;5093950;28;20092;-58
2023/11/22 06:08:06;;;;;;;27.75;22.65;;;11.30;99.90;;;;;;5093779;28;20024;-59
2023/11/22 06:10:32;;;;;;;27.02;22.52;;;11.40;99.90;;;;;;5093804;28;20069;-60
2023/11/22 06:12:57;;;;;;;28.73;21.95;;;11.50;99.90;;;;;;4989760;28;20045;-58
2023/11/22 06:15:23;;;;;;;25.45;21.90;;;11.40;99.90;;;;;;5041640;28;20088;-58
2023/11/22 06:17:49;;;;;;;29.85;23.05;;;11.30;99.90;;;;;;5093772;28;20028;-57
2023/11/22 06:20:15;;;;;;;30.15;23.40;;;11.30;99.90;;;;;;5093661;28;20035;-59
2023/11/22 06:22:42;;;;;;;29.77;23.48;;;11.30;99.90;;;;;;5075581;28;20515;-58
2023/11/22 06:25:11;;;;;;;32.33;23.98;;;11.20;99.90;;;;;;5093656;28;20028;-58
2023/11/22 06:27:38;;;;;;;30.77;25.08;;;11.30;99.90;;;;;;5093550;28;20032;-59
2023/11/22 06:30:06;;;;;;;33.30;27.58;;;11.30;99.90;;;;;;5057494;28;20040;-58
2023/11/22 06:32:32;;;;;;;33.80;27.67;;;11.40;99.90;;;;;;5093667;28;20078;-56
2023/11/22 06:34:58;;;;;;;33.90;25.20;;;11.30;99.90;;;;;;5093335;28;20024;-59
2023/11/22 06:37:23;;;;;;;30.42;27.13;;;11.30;99.90;;;;;;5065878;28;20115;-59
2023/11/22 06:39:50;;;;;;;31.88;25.48;;;11.20;99.90;;;;;;5057379;28;20072;-56
2023/11/22 06:42:16;;;;;;;35.83;31.83;;;11.20;99.90;;;;;;5093368;28;20476;-57
2023/11/22 06:44:42;;;;;;;36.60;27.77;;;11.20;99.90;;;;;;5093059;28;20136;-59
2023/11/22 06:47:08;;;;;;;38.13;30.35;;;11.20;99.90;;;;;;5093489;28;20032;-57
2023/11/22 06:49:34;;;;;;;31.52;26.95;;;11.20;99.90;;;;;;5093110;28;20487;-57
2023/11/22 06:52:00;;;;;;;33.72;26.98;;;11.00;99.90;;;;;;4996548;28;20041;-56
2023/11/22 06:54:26;;;;;;;34.22;25.73;;;10.80;99.90;;;;;;5050474;28;20033;-58
2023/11/22 06:56:52;;;;;;;35.65;27.52;;;11.00;99.90;;;;;;5070439;28;20037;-58
2023/11/22 06:59:18;;;;;;;36.10;26.38;;;10.90;99.90;;;;;;5070282;28;20033;-60
2023/11/22 07:01:45;;;;;;;37.40;29.63;;;10.80;99.90;;;;;;5076021;28;20036;-59
2023/11/22 07:04:11;;;;;;;39.33;28.88;;;10.90;99.90;;;;;;5080637;28;20020;-57
2023/11/22 07:06:37;;;;;;;43.05;29.55;;;11.00;99.90;;;;;;5047535;28;20128;-59
2023/11/22 07:09:09;;;;;;;38.88;31.23;;;11.00;99.90;;;;;;5080230;28;20031;-59
2023/11/22 07:11:36;;;;;;;42.55;30.50;;;11.00;99.90;;;;;;5080751;28;20036;-60
2023/11/22 07:14:03;;;;;;;43.75;31.98;;;11.10;99.90;;;;;;5079356;28;20154;-58
2023/11/22 07:16:30;;;;;;;37.90;28.50;;;11.10;99.90;;;;;;5078991;28;20089;-59
2023/11/22 07:18:56;;;;;;;36.92;27.55;;;11.10;99.90;;;;;;5080292;28;20044;-57
2023/11/22 07:21:22;;;;;;;39.90;29.38;;;11.00;99.90;;;;;;5078409;28;20025;-58
2023/11/22 07:23:48;;;;;;;35.70;25.42;;;11.10;99.90;;;;;;5094660;28;20035;-59
2023/11/22 07:26:15;;;;;;;33.63;24.85;;;11.00;99.90;;;;;;5101952;28;20449;-57
2023/11/22 07:28:41;;;;;;;39.78;28.20;;;11.00;99.90;;;;;;5102587;28;20032;-59
2023/11/22 07:31:11;;;;;;;34.67;24.45;;;11.10;99.90;;;;;;5102504;28;20056;-59
2023/11/22 07:33:38;;;;;;;47.30;36.03;;;11.10;99.90;;;;;;5100998;28;20432;-57
2023/11/22 07:36:05;;;;;;;35.83;25.15;;;11.10;99.90;;;;;;5102390;28;20506;-57
2023/11/22 07:38:31;;;;;;;33.13;24.25;;;11.10;99.90;;;;;;5066902;28;20028;-57
2023/11/22 07:40:58;;;;;;;36.15;23.92;;;;;;;;;;5100756;28;20028;-59
2023/11/22 07:43:24;;;;;;;34.03;24.05;;;;;;;;;;5100674;28;20043;-56
2023/11/22 07:45:51;;;;;;;36.33;24.65;;;10.90;99.90;;;;;;5102596;28;20430;-59
2023/11/22 07:48:17;;;;;;;37.83;25.50;;;10.80;99.90;;;;;;5100770;28;20028;-58
2023/11/22 07:50:48;;;;;;;34.70;23.20;;;10.80;99.90;;;;;;5066120;28;20536;-58
2023/11/22 07:53:14;;;;;;;37.88;24.52;;;10.70;99.90;;;;;;5102925;28;20027;-57
2023/11/22 07:55:41;;;;;;;36.17;23.25;;;10.60;99.90;;;;;;5101407;28;20427;-57
2023/11/22 07:58:08;;;;;;;39.13;26.42;;;10.70;99.90;;;;;;5101455;28;20066;-57
2023/11/22 08:00:34;;;;;;;33.67;21.70;;;10.60;99.90;;;;;;5102565;28;20043;-60
2023/11/22 08:03:03;;;;;;;38.47;26.55;;;10.50;99.90;;;;;;5100621;28;20526;-59
2023/11/22 08:05:34;;;;;;;38.20;26.48;;;10.50;99.90;;;;;;5101095;28;20054;-59
2023/11/22 08:08:02;;;;;;;40.65;29.85;;;10.60;99.90;;;;;;5102632;28;20106;-58
2023/11/22 08:10:32;;;;;;;37.45;25.98;;;10.70;99.90;;;;;;5102645;28;20632;-60
2023/11/22 08:12:57;;;;;;;37.78;26.38;;;10.70;99.90;;;;;;5100236;28;20039;-59
2023/11/22 08:15:24;;;;;;;34.47;24.35;;;10.70;99.90;;;;;;5101795;28;20474;-57
2023/11/22 08:17:49;;;;;;;40.42;27.58;;;10.50;99.90;;;;;;5101774;28;20107;-57
2023/11/22 08:20:17;;;;;;;46.15;31.65;;;10.60;99.90;;;;;;5100441;28;20119;-58
2023/11/22 08:22:45;;;;;;;40.20;28.50;;;10.60;99.90;;;;;;5056138;28;20468;-59
2023/11/22 08:25:12;;;;;;;42.38;31.20;;;10.70;99.90;;;;;;5091850;28;20036;-58
2023/11/22 08:27:40;;;;;;;38.83;28.05;;;10.80;99.90;;;;;;5092086;28;20028;-61
2023/11/22 08:30:17;;;;;;;39.28;28.75;;;10.70;99.90;;;;;;5091572;28;20036;-60
2023/11/22 08:32:47;;;;;;;38.75;29.90;;;10.70;99.90;;;;;;5095152;28;20039;-58
2023/11/22 08:35:13;;;;;;;36.88;28.30;;;10.60;99.90;;;;;;5095853;28;20031;-60
2023/11/22 08:37:41;;;;;;;37.50;25.60;;;10.80;99.90;;;;;;5095917;28;20039;-60
2023/11/22 08:40:20;;;;;;;51.40;42.92;;;10.80;99.90;;;;;;5095923;28;20032;-58
2023/11/22 08:42:46;;;;;;;34.03;25.08;;;10.90;99.90;;;;;;5095415;28;20051;-58
2023/11/22 08:45:12;;;;;;;44.08;33.10;;;10.90;99.90;;;;;;5095742;28;20063;-59
2023/11/22 08:47:40;;;;;;;51.28;40.85;;;10.90;99.90;;;;;;5095655;28;20028;-57
2023/11/22 08:50:08;;;;;;;37.78;28.73;;;11.00;99.90;;;;;;5095457;28;20410;-59
2023/11/22 08:52:34;;;;;;;39.90;30.90;;;10.90;99.90;;;;;;5095917;28;20443;-56
2023/11/22 08:55:00;;;;;;;46.35;35.40;;;11.00;99.90;;;;;;5095823;28;20028;-56
2023/11/22 08:57:27;;;;;;;41.85;30.60;;;11.10;99.90;;;;;;5095483;28;20391;-59
2023/11/22 08:59:53;;;;;;;37.88;26.17;;;11.10;99.90;;;;;;5095257;28;20020;-57
2023/11/22 09:02:22;;;;;;;46.80;29.67;;;11.00;99.90;;;;;;5095239;28;20024;-57
2023/11/22 09:04:48;;;;;;;36.40;24.50;;;11.00;99.90;;;;;;5095528;28;20039;-57
2023/11/22 09:07:14;;;;;;;41.42;27.38;;;;;;;;;;5076976;28;20356;-57
2023/11/22 09:09:41;;;;;;;38.30;26.85;;;10.90;99.90;;;;;;5095328;28;20433;-57
2023/11/22 09:12:12;;;;;;;43.00;29.60;;;11.10;99.90;;;;;;5076916;28;20093;-59
2023/11/22 09:14:42;;;;;;;40.20;26.33;;;11.20;99.90;;;;;;5048710;28;20043;-59
2023/11/22 09:17:09;;;;;;;38.83;26.65;;;;;;;;;;5046036;28;20036;-60
2023/11/22 09:19:36;;;;;;;40.58;25.63;;;;;;;;;;5094873;28;20046;-59
2023/11/22 09:22:02;;;;;;;39.50;25.13;;;;;;;;;;5094861;28;20063;-59
2023/11/22 09:24:28;;;;;;;37.85;25.27;;;;;;;;;;5075847;28;20055;-59
2023/11/22 09:26:54;;;;;;;38.38;24.40;;;;;;;;;;5095143;28;20094;-60
2023/11/22 09:29:20;;;;;;;35.88;24.55;;;;;;;;;;5096939;28;20490;-58
2023/11/22 09:31:47;;;;;;;46.30;28.38;;;;;;;;;;5094778;28;20028;-58
2023/11/22 09:34:13;;;;;;;48.60;28.13;;;;;;;;;;5094646;28;20495;-59
2023/11/22 09:36:39;;;;;;;47.47;29.58;;;;;;;;;;5099803;28;20043;-61
2023/11/22 09:39:08;;;;;;;60.10;37.83;;;11.20;99.90;;;;;;5105773;28;20127;-60
2023/11/22 09:41:35;;;;;;;58.78;33.97;;;;;;;;;;5103089;28;20039;-56
2023/11/22 09:44:02;;;;;;;80.45;45.85;;;;;;;;;;5102945;28;20423;-60
2023/11/22 09:46:29;;;;;;;80.60;45.17;;;;;;;;;;5095944;28;20032;-58
2023/11/22 09:48:57;;;;;;;97.35;53.75;;;;;;;;;;5066596;28;20387;-59
2023/11/22 09:51:27;;;;;;;93.35;47.78;;;;;;;;;;5096668;28;20572;-58
2023/11/22 09:53:56;;;;;;;85.55;47.75;;;;;;;;;;5102115;28;20487;-57
2023/11/22 09:56:23;;;;;;;80.15;45.78;;;;;;;;;;5099366;28;20024;-57
2023/11/22 09:58:54;;;;;;;64.00;37.78;;;;;;;;;;5069131;28;20076;-59
2023/11/22 10:01:21;;;;;;;62.63;39.10;;;11.40;99.90;;;;;;5069275;28;20140;-58
2023/11/22 10:03:48;;;;;;;143.85;64.82;;;11.50;99.90;;;;;;5068076;28;20036;-60
2023/11/22 10:06:17;;;;;;;78.57;40.55;;;11.30;99.90;;;;;;5064666;28;20033;-59
2023/11/22 10:08:46;;;;;;;66.95;44.20;;;11.00;99.90;;;;;;5033859;28;20044;-58
2023/11/22 10:11:18;;;;;;;81.88;50.55;;;10.90;99.90;;;;;;5064552;28;20512;-60
2023/11/22 10:13:48;;;;;;;69.25;46.30;;;10.90;99.90;;;;;;5035566;28;20040;-57
2023/11/22 10:16:15;;;;;;;78.55;51.17;;;;;;;;;;5064539;28;20040;-57
2023/11/22 10:18:46;;;;;;;66.93;41.40;;;;;;;;;;5068476;28;20047;-57
2023/11/22 10:21:25;;;;;;;48.88;35.50;;;11.00;99.90;;;;;;5063538;28;20028;-56
2023/11/22 10:23:51;;;;;;;47.83;33.55;;;;;;;;;;5067687;28;20040;-57
2023/11/22 10:26:18;;;;;;;52.17;36.95;;;11.10;99.90;;;;;;5067901;28;20135;-57
2023/11/22 10:28:44;;;;;;;70.90;50.15;;;11.00;99.90;;;;;;5063267;28;20032;-58
2023/11/22 10:31:10;;;;;;;56.25;38.60;;;11.10;99.90;;;;;;5093874;28;20027;-59
2023/11/22 10:33:41;;;;;;;57.88;38.58;;;11.20;99.90;;;;;;5098161;28;20032;-58
2023/11/22 10:36:08;;;;;;;61.28;41.45;;;11.30;99.90;;;;;;5100579;28;20114;-57
2023/11/22 10:38:35;;;;;;;53.17;38.75;;;11.20;99.90;;;;;;5092498;28;20036;-58
2023/11/22 10:41:10;;;;;;;103.88;92.50;;;11.30;99.90;;;;;;5096925;28;20118;-57
2023/11/22 10:43:36;;;;;;;61.47;44.08;;;11.20;99.90;;;;;;5093909;28;20546;-56
2023/11/22 10:46:04;;;;;;;63.42;50.35;;;11.20;99.90;;;;;;5093853;28;20028;-57
2023/11/22 10:48:32;;;;;;;70.32;48.05;;;11.30;99.90;;;;;;5094348;28;20383;-57
2023/11/22 10:51:03;;;;;;;71.97;47.88;;;11.30;99.90;;;;;;5100172;28;20038;-58
2023/11/22 10:53:38;;;;;;;68.10;44.10;;;11.40;99.90;;;;;;5097001;28;20491;-57
2023/11/22 10:56:19;;;;;;;68.03;44.20;;;11.30;99.90;;;;;;5098192;28;20722;-62
2023/11/22 10:58:48;;;;;;;59.90;39.07;;;11.30;99.90;;;;;;5058056;28;20090;-57
2023/11/22 11:01:17;;;;;;;53.10;33.85;;;11.30;99.90;;;;;;5022509;28;20327;-57
2023/11/22 11:03:52;;;;;;;51.65;35.95;;;10.90;99.90;;;;;;5057635;28;20579;-57
2023/11/22 11:06:27;;;;;;;51.45;34.88;;;10.90;99.90;;;;;;5063234;28;20483;-56
2023/11/22 11:08:55;;;;;;;51.45;34.78;;;11.00;99.90;;;;;;5053598;28;20044;-57
2023/11/22 11:11:22;;;;;;;45.92;30.63;;;11.00;99.90;;;;;;5024080;28;20045;-59
2023/11/22 11:13:50;;;;;;;39.65;26.98;;;11.10;99.90;;;;;;5027651;28;20033;-59
2023/11/22 11:16:16;;;;;;;38.72;25.63;;;11.10;99.90;;;;;;5028902;28;20038;-60
2023/11/22 11:18:42;;;;;;;42.28;29.02;;;11.10;99.90;;;;;;5025948;28;20041;-57
2023/11/22 11:21:13;;;;;;;44.03;31.17;;;11.20;99.90;;;;;;5028810;28;20508;-57
2023/11/22 11:23:48;;;;;;;58.20;38.85;;;11.20;99.90;;;;;;5027583;28;20103;-58
2023/11/22 11:26:21;;;;;;;53.33;35.83;;;11.20;99.90;;;;;;5002754;28;20132;-57
2023/11/22 11:28:49;;;;;;;51.13;34.53;;;11.10;99.90;;;;;;5029968;28;20070;-57
2023/11/22 11:31:16;;;;;;;43.25;31.52;;;11.00;99.90;;;;;;5051143;28;20068;-57
2023/11/22 11:33:47;;;;;;;43.05;29.83;;;11.10;99.90;;;;;;5050226;28;20149;-58
2023/11/22 11:36:34;;;;;;;57.22;38.13;;;11.20;99.90;;;;;;5060538;28;20426;-57
2023/11/22 11:39:03;;;;;;;50.63;34.28;;;11.10;99.90;;;;;;5050114;28;20041;-56
2023/11/22 11:41:34;;;;;;;57.15;37.70;;;11.10;99.90;;;;;;5056271;28;20047;-58
2023/11/22 11:44:06;;;;;;;74.57;47.23;;;11.00;99.90;;;;;;5099253;28;20044;-58
2023/11/22 11:46:33;;;;;;;57.30;36.90;;;11.00;99.90;;;;;;5103168;28;20028;-59
2023/11/22 11:48:59;;;;;;;74.68;46.08;;;11.20;99.90;;;;;;5097060;28;20102;-58
2023/11/22 11:51:26;;;;;;;55.17;36.40;;;11.20;99.90;;;;;;5099108;28;20027;-60
2023/11/22 11:53:54;;;;;;;51.67;35.53;;;11.30;99.90;;;;;;5104286;28;20073;-60
2023/11/22 11:56:20;;;;;;;40.10;28.98;;;11.40;99.90;;;;;;5097278;28;20438;-60
2023/11/22 11:58:49;;;;;;;48.30;29.45;;;11.40;99.90;;;;;;5099316;28;20043;-58
2023/11/22 12:01:22;;;;;;;59.22;37.30;;;11.40;99.90;;;;;;5087934;28;20035;-59
2023/11/22 12:03:49;;;;;;;57.97;38.83;;;;;;;;;;5100466;28;20057;-59
2023/11/22 12:06:16;;;;;;;60.10;38.58;;;;;;;;;;5097261;28;20089;-61
2023/11/22 12:08:42;;;;;;;66.30;42.75;;;11.30;99.90;;;;;;5097501;28;20090;-66
2023/11/22 12:11:08;;;;;;;63.05;42.95;;;;;;;;;;5100351;28;20067;-58
2023/11/22 12:13:38;;;;;;;62.67;41.88;;;;;;;;;;5095534;28;20031;-61
2023/11/22 12:16:11;;;;;;;55.28;44.15;;;11.30;99.90;;;;;;5104527;28;20112;-60
2023/11/22 12:19:03;;;;;;;50.88;32.13;;;10.80;99.90;;;;;;5095290;28;20020;-61
2023/11/22 12:21:30;;;;;;;62.97;46.30;;;10.50;99.90;;;;;;5095242;28;20048;-60
2023/11/22 12:23:56;;;;;;;56.70;38.65;;;10.50;99.90;;;;;;5096412;28;20093;-59
2023/11/22 12:26:22;;;;;;;58.58;44.13;;;10.40;99.90;;;;;;5096151;28;20028;-60
2023/11/22 12:28:49;;;;;;;50.55;32.22;;;10.50;99.90;;;;;;5047635;28;20046;-60
2023/11/22 12:31:16;;;;;;;47.55;30.17;;;10.40;99.90;;;;;;5097921;28;20032;-59
2023/11/22 12:33:42;;;;;;;37.17;25.95;;;;;;;;;;5062626;28;20024;-59
2023/11/22 12:36:09;;;;;;;43.97;28.23;;;10.40;99.90;;;;;;5102298;28;20027;-60
2023/11/22 12:38:36;;;;;;;32.08;23.08;;;10.40;99.90;;;;;;5098184;28;20027;-60
2023/11/22 12:41:22;;;;;;;34.90;23.17;;;10.20;99.90;;;;;;5094979;28;20127;-59
2023/11/22 12:44:10;;;;;;;34.67;24.27;;;10.10;99.90;;;;;;5060345;28;20044;-58
2023/11/22 12:46:56;;;;;;;36.22;24.15;;;10.20;99.90;;;;;;5059664;28;20039;-59